首页
METAR-TAF:

METAR-TAF

机场 :

滑鐵盧區國際機場

滑铁卢, 安大略省, 加拿大

纬度: 43-28N, 经度: 080-23W, 海拔: 317米

当前天气观测

该预报发布于36分钟前的16:00 UTC
风速13节,风向南转南东
温度 3°C
湿度 65%
气压 1018 hPa
能見度: 14.5公里
少量云层高于21000英尺
散云层高于23000英尺

METAR: CYKF 131600Z AUTO 16013KT 9SM FEW210 SCT230 03/M03 A3007 RMK SLP197

时间: 11:36 (16:36 UTC)

预报

该预报发布于2小时和58分钟前的13:38 UTC
预报有效从13日的 14点(UTC)到 14日的 02点(UTC)
风速5节,风向南转南东
能見度: 10公里
多云层高于24000英尺
成为
从 13日的 14点(UTC)到 13日的 16点(UTC)
风速12节,风向
从 14日的 0100点(UTC)
风速8节,风向南转南东
能見度: 10公里
多云层高于3000英尺
阴天层高于14000英尺

TAF: CYKF 131338Z 1314/1402 15005KT P6SM BKN240 BECMG 1314/1316 18012KT FM140100 15008KT P6SM BKN030 OVC140 RMK FCST BASED ON AUTO OBS. NXT FCST BY 132000Z

超过4000个机场的气象观测和天气预报(METAR&TAF报告)。

可查询的气象台以黄色和红色小点在地图上表示。

将鼠标移到小点上方,可查看气象台名称。

然后点击查看天气观测和预报。

如需切换地图:点击带黑十字的绿色按钮放大地图;点击带横线的绿色按钮缩小地图;或者点击绿色箭头查看邻近地区的地图。


METAR-TAF: